createdAt,value
2017-12-28T00:04:49.982Z,984.4
2017-12-28T00:15:43.569Z,984.7
2017-12-28T00:25:57.189Z,984.8
2017-12-28T00:36:11.569Z,984.9
2017-12-28T00:46:24.760Z,985.1
2017-12-28T00:56:38.295Z,985.3
2017-12-28T01:06:52.369Z,985.5
2017-12-28T01:17:05.736Z,985.6
2017-12-28T01:27:19.787Z,985.9
2017-12-28T01:37:33.042Z,986.1
2017-12-28T01:47:46.208Z,986.2
2017-12-28T01:57:59.671Z,986.3
2017-12-28T02:08:13.647Z,986.3
2017-12-28T02:18:27.084Z,986.5
2017-12-28T02:28:40.418Z,986.6
2017-12-28T02:38:53.480Z,986.8
2017-12-28T02:49:07.128Z,987.1
2017-12-28T02:59:20.934Z,987.0
2017-12-28T03:10:29.936Z,987.1
2017-12-28T03:20:43.865Z,987.3
2017-12-28T03:30:56.872Z,987.5
2017-12-28T03:51:26.845Z,987.8
2017-12-28T04:01:39.910Z,988.0
2017-12-28T04:11:53.186Z,988.2
2017-12-28T04:22:28.219Z,988.3
2017-12-28T04:32:44.010Z,988.3
2017-12-28T04:42:57.287Z,988.5
2017-12-28T04:53:10.462Z,988.7
2017-12-28T05:03:25.220Z,988.8
2017-12-28T05:13:39.123Z,989.0
2017-12-28T05:24:48.580Z,989.1
2017-12-28T05:35:02.518Z,989.3
2017-12-28T05:45:15.889Z,989.4
2017-12-28T05:55:29.386Z,989.4
2017-12-28T06:05:43.425Z,989.7
2017-12-28T06:15:56.680Z,989.8
2017-12-28T06:26:10.333Z,990.0
2017-12-28T06:37:00.624Z,990.2
2017-12-28T06:47:15.052Z,990.3
2017-12-28T06:58:01.934Z,990.4
2017-12-28T07:08:33.539Z,990.6
2017-12-28T07:19:18.922Z,990.7
2017-12-28T07:30:32.828Z,991.0
2017-12-28T07:40:46.629Z,991.2
2017-12-28T07:50:59.876Z,991.3
2017-12-28T08:01:14.646Z,991.4
2017-12-28T08:12:03.170Z,991.4
2017-12-28T08:22:16.326Z,991.4
2017-12-28T08:32:30.190Z,991.7
2017-12-28T08:42:42.355Z,991.7
2017-12-28T08:52:56.181Z,991.7
2017-12-28T09:03:13.465Z,991.7
2017-12-28T09:13:26.916Z,991.8
2017-12-28T09:23:41.211Z,992.0
2017-12-28T09:33:55.231Z,992.1
2017-12-28T09:44:30.373Z,992.1
2017-12-28T09:55:15.076Z,992.2
2017-12-28T10:06:34.419Z,992.3
2017-12-28T10:17:09.387Z,992.2
2017-12-28T10:27:23.248Z,992.4
2017-12-28T10:37:36.560Z,992.4
2017-12-28T10:47:50.622Z,992.4
2017-12-28T10:58:04.902Z,992.6
2017-12-28T11:08:18.516Z,992.7
2017-12-28T11:18:32.817Z,992.8
2017-12-28T11:29:16.658Z,992.7
2017-12-28T11:39:30.278Z,992.8
2017-12-28T11:50:15.902Z,993.0
2017-12-28T12:00:30.495Z,992.5
2017-12-28T12:11:19.005Z,992.9
2017-12-28T12:21:33.426Z,993.0
2017-12-28T12:31:46.756Z,992.9
2017-12-28T12:42:18.430Z,992.4
2017-12-28T12:52:32.504Z,993.0
2017-12-28T13:02:46.586Z,993.2
2017-12-28T13:13:35.937Z,993.2
2017-12-28T13:24:21.924Z,993.3
2017-12-28T13:34:36.602Z,993.5
2017-12-28T13:45:01.876Z,993.4
2017-12-28T13:55:21.484Z,993.9
2017-12-28T14:05:40.849Z,993.6
2017-12-28T14:15:55.233Z,993.7
2017-12-28T14:26:40.946Z,994.0
2017-12-28T14:47:25.415Z,994.3
2017-12-28T15:08:54.515Z,994.4
2017-12-28T15:19:51.103Z,994.7
2017-12-28T15:30:35.772Z,994.8
2017-12-28T15:41:24.043Z,995.2
2017-12-28T15:52:09.433Z,995.2
2017-12-28T16:02:23.028Z,995.3
2017-12-28T16:13:05.970Z,995.4
2017-12-28T16:23:35.867Z,995.5
2017-12-28T16:34:23.126Z,995.7
2017-12-28T16:45:08.710Z,996.0
2017-12-28T16:55:32.533Z,996.0
2017-12-28T17:05:46.667Z,996.3
2017-12-28T17:16:00.150Z,996.2
2017-12-28T17:26:34.922Z,996.3
2017-12-28T17:36:49.512Z,996.4
2017-12-28T17:47:37.054Z,996.6
2017-12-28T17:57:51.846Z,996.6
2017-12-28T18:08:06.090Z,996.7
2017-12-28T18:18:20.016Z,996.8
2017-12-28T18:28:33.565Z,997.0
2017-12-28T18:39:48.116Z,997.2
2017-12-28T18:50:03.291Z,997.4
2017-12-28T19:00:33.708Z,997.3
2017-12-28T19:11:26.993Z,997.5
2017-12-28T19:21:49.835Z,997.6
2017-12-28T19:32:22.846Z,997.7
2017-12-28T19:43:08.426Z,998.0
2017-12-28T19:54:38.588Z,998.0
2017-12-28T20:04:52.386Z,998.1
2017-12-28T20:28:56.343Z,998.1
2017-12-28T20:40:18.070Z,998.2
2017-12-28T20:51:02.811Z,998.4
2017-12-28T21:01:17.380Z,998.4
2017-12-28T21:12:04.389Z,998.6
2017-12-28T21:22:19.721Z,998.7
2017-12-28T21:32:50.549Z,998.6
2017-12-28T21:43:01.836Z,998.9
2017-12-28T21:53:16.800Z,999.0
2017-12-28T22:04:52.691Z,999.2
2017-12-28T22:15:09.201Z,999.4
2017-12-28T22:25:24.041Z,999.5
2017-12-28T22:36:09.668Z,999.5
2017-12-28T22:46:23.629Z,999.5
2017-12-28T22:56:36.989Z,999.6
2017-12-28T23:07:58.116Z,999.6
2017-12-28T23:18:11.697Z,999.8
2017-12-28T23:28:28.094Z,999.9
2017-12-28T23:39:03.420Z,1000.0
2017-12-28T23:49:28.686Z,1000.0
2017-12-28T23:59:42.492Z,1000.1
